sensor_id;sensor_type;location;lat;lon;timestamp;pressure;altitude;pressure_sealevel;temperature;humidity
45991;BME280;31721;41.740;-88.000;2023-02-14T00:02:09;98561.93;;;9.18;25.99
45991;BME280;31721;41.740;-88.000;2023-02-14T00:04:38;98566.51;;;9.01;26.05
45991;BME280;31721;41.740;-88.000;2023-02-14T00:07:05;98567.55;;;8.96;26.29
45991;BME280;31721;41.740;-88.000;2023-02-14T00:09:34;98569.70;;;8.79;26.57
45991;BME280;31721;41.740;-88.000;2023-02-14T00:12:02;98574.19;;;8.77;26.92
45991;BME280;31721;41.740;-88.000;2023-02-14T00:14:30;98575.21;;;8.51;27.04
45991;BME280;31721;41.740;-88.000;2023-02-14T00:16:58;98576.00;;;8.48;27.31
45991;BME280;31721;41.740;-88.000;2023-02-14T00:19:26;98579.05;;;8.40;27.72
45991;BME280;31721;41.740;-88.000;2023-02-14T00:21:54;98581.51;;;8.21;27.73
45991;BME280;31721;41.740;-88.000;2023-02-14T00:24:24;98580.62;;;8.12;28.04
45991;BME280;31721;41.740;-88.000;2023-02-14T00:26:53;98580.71;;;8.03;28.24
45991;BME280;31721;41.740;-88.000;2023-02-14T00:29:24;98584.75;;;7.96;28.58
45991;BME280;31721;41.740;-88.000;2023-02-14T00:31:53;98593.11;;;7.88;28.66
45991;BME280;31721;41.740;-88.000;2023-02-14T00:34:21;98597.22;;;7.81;28.77
45991;BME280;31721;41.740;-88.000;2023-02-14T00:36:49;98595.80;;;7.89;28.95
45991;BME280;31721;41.740;-88.000;2023-02-14T00:39:18;98590.96;;;7.59;29.11
45991;BME280;31721;41.740;-88.000;2023-02-14T00:41:46;98590.91;;;7.65;29.45
45991;BME280;31721;41.740;-88.000;2023-02-14T00:44:14;98593.83;;;7.59;29.48
45991;BME280;31721;41.740;-88.000;2023-02-14T00:46:42;98596.58;;;7.51;29.49
45991;BME280;31721;41.740;-88.000;2023-02-14T00:49:10;98592.14;;;7.41;29.73
45991;BME280;31721;41.740;-88.000;2023-02-14T00:51:38;98591.04;;;7.25;29.82
45991;BME280;31721;41.740;-88.000;2023-02-14T00:54:06;98592.47;;;7.16;30.07
45991;BME280;31721;41.740;-88.000;2023-02-14T00:56:34;98591.95;;;7.16;30.17
45991;BME280;31721;41.740;-88.000;2023-02-14T00:59:02;98586.71;;;7.04;30.29
45991;BME280;31721;41.740;-88.000;2023-02-14T01:01:29;98592.38;;;6.95;30.46
45991;BME280;31721;41.740;-88.000;2023-02-14T01:03:57;98595.99;;;6.96;30.63
45991;BME280;31721;41.740;-88.000;2023-02-14T01:06:25;98595.10;;;6.77;30.73
45991;BME280;31721;41.740;-88.000;2023-02-14T01:08:53;98593.45;;;6.75;31.02
45991;BME280;31721;41.740;-88.000;2023-02-14T01:11:23;98593.77;;;6.64;31.08
45991;BME280;31721;41.740;-88.000;2023-02-14T01:13:53;98590.48;;;6.62;31.27
45991;BME280;31721;41.740;-88.000;2023-02-14T01:16:23;98592.39;;;6.52;31.44
45991;BME280;31721;41.740;-88.000;2023-02-14T01:18:51;98589.30;;;6.41;31.55
45991;BME280;31721;41.740;-88.000;2023-02-14T01:21:22;98589.81;;;6.18;31.82
45991;BME280;31721;41.740;-88.000;2023-02-14T01:23:53;98590.71;;;6.20;31.85
45991;BME280;31721;41.740;-88.000;2023-02-14T01:26:22;98592.55;;;6.12;31.97
45991;BME280;31721;41.740;-88.000;2023-02-14T01:28:50;98593.45;;;6.03;32.00
45991;BME280;31721;41.740;-88.000;2023-02-14T01:31:19;98589.65;;;6.01;32.10
45991;BME280;31721;41.740;-88.000;2023-02-14T01:33:48;98592.84;;;5.79;32.01
45991;BME280;31721;41.740;-88.000;2023-02-14T01:36:18;98594.63;;;5.81;32.42
45991;BME280;31721;41.740;-88.000;2023-02-14T01:38:46;98590.59;;;5.65;32.59
45991;BME280;31721;41.740;-88.000;2023-02-14T01:41:14;98592.97;;;5.57;32.66
45991;BME280;31721;41.740;-88.000;2023-02-14T01:43:58;98596.50;;;5.59;32.81
45991;BME280;31721;41.740;-88.000;2023-02-14T01:46:29;98598.36;;;5.52;32.84
45991;BME280;31721;41.740;-88.000;2023-02-14T01:49:02;98591.88;;;5.38;33.06
45991;BME280;31721;41.740;-88.000;2023-02-14T01:51:34;98590.74;;;5.39;33.33
45991;BME280;31721;41.740;-88.000;2023-02-14T01:54:05;98590.92;;;5.27;33.41
45991;BME280;31721;41.740;-88.000;2023-02-14T01:56:36;98596.31;;;5.19;33.46
45991;BME280;31721;41.740;-88.000;2023-02-14T01:59:08;98593.84;;;5.08;33.59
45991;BME280;31721;41.740;-88.000;2023-02-14T02:01:38;98594.65;;;5.02;33.80
45991;BME280;31721;41.740;-88.000;2023-02-14T02:04:10;98587.87;;;4.91;33.61
45991;BME280;31721;41.740;-88.000;2023-02-14T02:06:42;98579.58;;;4.88;34.06
45991;BME280;31721;41.740;-88.000;2023-02-14T02:09:14;98575.70;;;4.84;34.05
45991;BME280;31721;41.740;-88.000;2023-02-14T02:11:44;98573.04;;;4.78;34.17
45991;BME280;31721;41.740;-88.000;2023-02-14T02:14:14;98566.52;;;4.75;34.31
45991;BME280;31721;41.740;-88.000;2023-02-14T02:16:58;98565.70;;;4.71;34.40
45991;BME280;31721;41.740;-88.000;2023-02-14T02:24:43;98569.32;;;4.61;35.06
45991;BME280;31721;41.740;-88.000;2023-02-14T02:27:23;98564.18;;;4.59;34.95
45991;BME280;31721;41.740;-88.000;2023-02-14T02:30:11;98572.31;;;4.61;35.26
45991;BME280;31721;41.740;-88.000;2023-02-14T02:33:05;98578.80;;;4.71;35.25
45991;BME280;31721;41.740;-88.000;2023-02-14T02:35:51;98572.59;;;4.56;35.27
45991;BME280;31721;41.740;-88.000;2023-02-14T02:38:34;98575.88;;;4.49;35.37
45991;BME280;31721;41.740;-88.000;2023-02-14T02:41:14;98583.18;;;4.50;35.63
45991;BME280;31721;41.740;-88.000;2023-02-14T02:43:52;98588.10;;;4.37;35.75
45991;BME280;31721;41.740;-88.000;2023-02-14T02:46:26;98593.40;;;4.47;35.82
45991;BME280;31721;41.740;-88.000;2023-02-14T02:49:05;98597.95;;;4.36;35.83
45991;BME280;31721;41.740;-88.000;2023-02-14T02:51:43;98610.26;;;4.35;36.02
45991;BME280;31721;41.740;-88.000;2023-02-14T02:54:18;98618.51;;;4.27;36.04
45991;BME280;31721;41.740;-88.000;2023-02-14T02:56:49;98619.80;;;4.16;36.08
45991;BME280;31721;41.740;-88.000;2023-02-14T02:59:22;98622.34;;;4.10;36.27
45991;BME280;31721;41.740;-88.000;2023-02-14T03:01:55;98623.08;;;4.00;36.46
45991;BME280;31721;41.740;-88.000;2023-02-14T03:04:25;98617.56;;;3.89;36.46
45991;BME280;31721;41.740;-88.000;2023-02-14T03:06:54;98607.45;;;3.80;36.67
45991;BME280;31721;41.740;-88.000;2023-02-14T03:09:56;98600.29;;;3.92;36.95
45991;BME280;31721;41.740;-88.000;2023-02-14T03:12:42;98595.25;;;3.67;36.85
45991;BME280;31721;41.740;-88.000;2023-02-14T03:15:21;98596.06;;;3.58;36.79
45991;BME280;31721;41.740;-88.000;2023-02-14T03:18:01;98598.65;;;3.70;36.91
45991;BME280;31721;41.740;-88.000;2023-02-14T03:20:39;98601.57;;;3.61;37.13
45991;BME280;31721;41.740;-88.000;2023-02-14T03:23:18;98601.00;;;3.34;37.03
45991;BME280;31721;41.740;-88.000;2023-02-14T03:25:55;98602.74;;;3.32;37.38
45991;BME280;31721;41.740;-88.000;2023-02-14T03:28:32;98606.48;;;3.28;37.49
45991;BME280;31721;41.740;-88.000;2023-02-14T03:31:10;98601.73;;;3.29;37.46
45991;BME280;31721;41.740;-88.000;2023-02-14T03:33:45;98601.20;;;3.29;37.92
45991;BME280;31721;41.740;-88.000;2023-02-14T03:36:18;98601.82;;;3.24;37.93
45991;BME280;31721;41.740;-88.000;2023-02-14T03:38:51;98605.28;;;3.25;38.13
45991;BME280;31721;41.740;-88.000;2023-02-14T03:41:25;98597.72;;;3.23;38.16
45991;BME280;31721;41.740;-88.000;2023-02-14T03:43:56;98584.53;;;3.17;37.92
45991;BME280;31721;41.740;-88.000;2023-02-14T03:46:29;98585.61;;;3.06;38.14
45991;BME280;31721;41.740;-88.000;2023-02-14T03:49:02;98584.32;;;3.10;38.24
45991;BME280;31721;41.740;-88.000;2023-02-14T03:51:32;98579.17;;;2.88;38.45
45991;BME280;31721;41.740;-88.000;2023-02-14T03:54:04;98578.63;;;3.01;38.55
45991;BME280;31721;41.740;-88.000;2023-02-14T03:56:37;98583.53;;;2.90;38.61
45991;BME280;31721;41.740;-88.000;2023-02-14T03:59:11;98585.60;;;2.89;38.52
45991;BME280;31721;41.740;-88.000;2023-02-14T04:01:45;98586.20;;;2.87;38.75
45991;BME280;31721;41.740;-88.000;2023-02-14T04:04:18;98581.63;;;2.83;38.70
45991;BME280;31721;41.740;-88.000;2023-02-14T04:06:47;98578.17;;;2.81;38.80
45991;BME280;31721;41.740;-88.000;2023-02-14T04:09:15;98573.77;;;2.72;38.80
45991;BME280;31721;41.740;-88.000;2023-02-14T04:11:42;98574.18;;;2.75;39.14
45991;BME280;31721;41.740;-88.000;2023-02-14T04:14:11;98570.72;;;2.67;38.93
45991;BME280;31721;41.740;-88.000;2023-02-14T04:16:39;98574.96;;;2.66;39.12
45991;BME280;31721;41.740;-88.000;2023-02-14T04:19:08;98582.85;;;2.68;39.19
45991;BME280;31721;41.740;-88.000;2023-02-14T04:21:36;98578.68;;;2.61;39.21
45991;BME280;31721;41.740;-88.000;2023-02-14T04:24:04;98576.20;;;2.58;39.37
45991;BME280;31721;41.740;-88.000;2023-02-14T04:26:32;98576.82;;;2.55;39.49
45991;BME280;31721;41.740;-88.000;2023-02-14T04:29:00;98575.26;;;2.49;39.47
45991;BME280;31721;41.740;-88.000;2023-02-14T04:31:27;98576.59;;;2.44;39.36
45991;BME280;31721;41.740;-88.000;2023-02-14T04:33:55;98580.55;;;2.41;39.51
45991;BME280;31721;41.740;-88.000;2023-02-14T04:36:22;98587.12;;;2.34;39.66
45991;BME280;31721;41.740;-88.000;2023-02-14T04:38:51;98596.57;;;2.43;39.78
45991;BME280;31721;41.740;-88.000;2023-02-14T04:41:18;98596.77;;;2.39;39.89
45991;BME280;31721;41.740;-88.000;2023-02-14T04:43:46;98594.88;;;2.21;39.76
45991;BME280;31721;41.740;-88.000;2023-02-14T04:46:15;98594.52;;;2.34;39.89
45991;BME280;31721;41.740;-88.000;2023-02-14T04:48:42;98594.24;;;2.17;39.98
45991;BME280;31721;41.740;-88.000;2023-02-14T04:51:10;98592.68;;;2.22;40.04
45991;BME280;31721;41.740;-88.000;2023-02-14T04:53:38;98589.07;;;2.17;40.18
45991;BME280;31721;41.740;-88.000;2023-02-14T04:56:06;98577.69;;;2.13;40.18
45991;BME280;31721;41.740;-88.000;2023-02-14T04:58:34;98572.39;;;2.10;40.27
45991;BME280;31721;41.740;-88.000;2023-02-14T05:01:03;98568.36;;;2.04;40.19
45991;BME280;31721;41.740;-88.000;2023-02-14T05:03:32;98567.04;;;2.05;40.51
45991;BME280;31721;41.740;-88.000;2023-02-14T05:05:59;98567.10;;;2.11;40.46
45991;BME280;31721;41.740;-88.000;2023-02-14T05:08:28;98564.80;;;1.96;40.56
45991;BME280;31721;41.740;-88.000;2023-02-14T05:10:56;98568.62;;;1.84;40.68
45991;BME280;31721;41.740;-88.000;2023-02-14T05:13:24;98569.23;;;1.86;40.55
45991;BME280;31721;41.740;-88.000;2023-02-14T05:15:52;98573.92;;;1.81;40.78
45991;BME280;31721;41.740;-88.000;2023-02-14T05:18:19;98575.22;;;1.73;40.70
45991;BME280;31721;41.740;-88.000;2023-02-14T05:20:48;98575.58;;;1.84;41.12
45991;BME280;31721;41.740;-88.000;2023-02-14T05:23:17;98584.20;;;1.65;40.96
45991;BME280;31721;41.740;-88.000;2023-02-14T05:25:46;98585.95;;;1.76;40.97
45991;BME280;31721;41.740;-88.000;2023-02-14T05:28:15;98587.68;;;1.72;41.38
45991;BME280;31721;41.740;-88.000;2023-02-14T05:30:44;98584.16;;;1.66;41.35
45991;BME280;31721;41.740;-88.000;2023-02-14T05:33:12;98585.40;;;1.72;41.37
45991;BME280;31721;41.740;-88.000;2023-02-14T05:35:40;98584.37;;;1.68;41.64
45991;BME280;31721;41.740;-88.000;2023-02-14T05:38:09;98583.25;;;1.56;41.52
45991;BME280;31721;41.740;-88.000;2023-02-14T05:40:37;98594.89;;;1.59;41.70
45991;BME280;31721;41.740;-88.000;2023-02-14T05:43:05;98597.81;;;1.56;41.79
45991;BME280;31721;41.740;-88.000;2023-02-14T05:45:33;98590.52;;;1.59;41.92
45991;BME280;31721;41.740;-88.000;2023-02-14T05:48:00;98580.37;;;1.50;41.97
45991;BME280;31721;41.740;-88.000;2023-02-14T05:50:28;98580.90;;;1.52;41.79
45991;BME280;31721;41.740;-88.000;2023-02-14T05:52:56;98571.29;;;1.53;42.12
45991;BME280;31721;41.740;-88.000;2023-02-14T05:55:24;98568.86;;;1.44;42.16
45991;BME280;31721;41.740;-88.000;2023-02-14T05:57:52;98571.76;;;1.45;42.16
45991;BME280;31721;41.740;-88.000;2023-02-14T06:00:22;98561.23;;;1.42;42.28
45991;BME280;31721;41.740;-88.000;2023-02-14T06:02:50;98552.62;;;1.45;42.29
45991;BME280;31721;41.740;-88.000;2023-02-14T06:05:19;98548.02;;;1.54;42.24
45991;BME280;31721;41.740;-88.000;2023-02-14T06:07:48;98541.01;;;1.47;42.41
45991;BME280;31721;41.740;-88.000;2023-02-14T06:10:17;98541.83;;;1.60;42.36
45991;BME280;31721;41.740;-88.000;2023-02-14T06:12:46;98544.02;;;1.57;42.63
45991;BME280;31721;41.740;-88.000;2023-02-14T06:15:15;98549.19;;;1.59;42.67
45991;BME280;31721;41.740;-88.000;2023-02-14T06:17:43;98541.71;;;1.64;42.07
45991;BME280;31721;41.740;-88.000;2023-02-14T06:20:12;98534.24;;;1.57;42.39
45991;BME280;31721;41.740;-88.000;2023-02-14T06:22:40;98530.78;;;1.44;42.59
45991;BME280;31721;41.740;-88.000;2023-02-14T06:25:08;98528.88;;;1.56;42.67
45991;BME280;31721;41.740;-88.000;2023-02-14T06:27:35;98532.06;;;1.57;42.80
45991;BME280;31721;41.740;-88.000;2023-02-14T06:30:05;98534.08;;;1.47;42.64
45991;BME280;31721;41.740;-88.000;2023-02-14T06:32:33;98517.13;;;1.57;42.61
45991;BME280;31721;41.740;-88.000;2023-02-14T06:35:01;98521.03;;;1.43;42.90
45991;BME280;31721;41.740;-88.000;2023-02-14T06:37:29;98514.66;;;1.39;42.71
45991;BME280;31721;41.740;-88.000;2023-02-14T06:39:57;98511.16;;;1.41;42.73
45991;BME280;31721;41.740;-88.000;2023-02-14T06:42:25;98509.36;;;1.45;42.84
45991;BME280;31721;41.740;-88.000;2023-02-14T06:44:53;98506.62;;;1.30;42.98
45991;BME280;31721;41.740;-88.000;2023-02-14T06:47:21;98503.57;;;1.42;43.07
45991;BME280;31721;41.740;-88.000;2023-02-14T06:49:49;98502.04;;;1.31;42.85
45991;BME280;31721;41.740;-88.000;2023-02-14T06:52:17;98507.94;;;1.40;43.15
45991;BME280;31721;41.740;-88.000;2023-02-14T06:54:45;98512.12;;;1.33;43.38
45991;BME280;31721;41.740;-88.000;2023-02-14T06:57:13;98504.10;;;1.39;43.17
45991;BME280;31721;41.740;-88.000;2023-02-14T06:59:40;98496.82;;;1.22;43.07
45991;BME280;31721;41.740;-88.000;2023-02-14T07:02:09;98490.03;;;1.22;43.40
45991;BME280;31721;41.740;-88.000;2023-02-14T07:04:37;98493.20;;;1.25;43.45
45991;BME280;31721;41.740;-88.000;2023-02-14T07:07:05;98495.90;;;1.33;43.25
45991;BME280;31721;41.740;-88.000;2023-02-14T07:09:33;98500.05;;;1.33;43.34
45991;BME280;31721;41.740;-88.000;2023-02-14T07:12:00;98495.95;;;1.35;43.48
45991;BME280;31721;41.740;-88.000;2023-02-14T07:14:28;98507.76;;;1.39;43.57
45991;BME280;31721;41.740;-88.000;2023-02-14T07:16:56;98501.82;;;1.34;43.58
45991;BME280;31721;41.740;-88.000;2023-02-14T07:19:23;98497.61;;;1.32;43.42
45991;BME280;31721;41.740;-88.000;2023-02-14T07:21:51;98502.97;;;1.30;43.56
45991;BME280;31721;41.740;-88.000;2023-02-14T07:24:20;98498.30;;;1.25;43.34
45991;BME280;31721;41.740;-88.000;2023-02-14T07:26:47;98496.98;;;1.28;43.63
45991;BME280;31721;41.740;-88.000;2023-02-14T07:29:15;98497.93;;;1.17;43.56
45991;BME280;31721;41.740;-88.000;2023-02-14T07:31:43;98489.87;;;1.23;43.48
45991;BME280;31721;41.740;-88.000;2023-02-14T07:34:10;98490.48;;;1.25;43.64
45991;BME280;31721;41.740;-88.000;2023-02-14T07:36:38;98493.57;;;1.14;43.73
45991;BME280;31721;41.740;-88.000;2023-02-14T07:39:06;98493.19;;;1.22;43.77
45991;BME280;31721;41.740;-88.000;2023-02-14T07:41:33;98490.46;;;1.20;43.83
45991;BME280;31721;41.740;-88.000;2023-02-14T07:44:02;98493.28;;;1.18;43.87
45991;BME280;31721;41.740;-88.000;2023-02-14T07:46:29;98496.71;;;1.17;43.85
45991;BME280;31721;41.740;-88.000;2023-02-14T07:48:57;98501.14;;;1.08;43.92
45991;BME280;31721;41.740;-88.000;2023-02-14T07:51:26;98505.39;;;1.13;43.72
45991;BME280;31721;41.740;-88.000;2023-02-14T07:53:54;98509.36;;;1.12;43.63
45991;BME280;31721;41.740;-88.000;2023-02-14T07:56:22;98509.78;;;1.03;43.71
45991;BME280;31721;41.740;-88.000;2023-02-14T07:58:50;98514.54;;;1.10;43.70
45991;BME280;31721;41.740;-88.000;2023-02-14T08:01:18;98512.04;;;1.09;43.94
45991;BME280;31721;41.740;-88.000;2023-02-14T08:03:46;98511.58;;;1.11;43.96
45991;BME280;31721;41.740;-88.000;2023-02-14T08:06:14;98517.87;;;1.12;43.83
45991;BME280;31721;41.740;-88.000;2023-02-14T08:08:44;98515.29;;;1.12;43.61
45991;BME280;31721;41.740;-88.000;2023-02-14T08:11:13;98512.66;;;1.06;43.53
45991;BME280;31721;41.740;-88.000;2023-02-14T08:13:41;98515.06;;;1.09;43.61
45991;BME280;31721;41.740;-88.000;2023-02-14T08:16:08;98512.68;;;1.20;43.43
45991;BME280;31721;41.740;-88.000;2023-02-14T08:18:38;98507.97;;;1.19;43.64
45991;BME280;31721;41.740;-88.000;2023-02-14T08:21:09;98509.45;;;1.22;43.45
45991;BME280;31721;41.740;-88.000;2023-02-14T08:23:37;98511.16;;;1.30;43.54
45991;BME280;31721;41.740;-88.000;2023-02-14T08:26:06;98508.93;;;1.32;43.30
45991;BME280;31721;41.740;-88.000;2023-02-14T08:28:34;98504.30;;;1.37;43.34
45991;BME280;31721;41.740;-88.000;2023-02-14T08:31:02;98498.10;;;1.42;43.42
45991;BME280;31721;41.740;-88.000;2023-02-14T08:33:30;98498.38;;;1.41;43.28
45991;BME280;31721;41.740;-88.000;2023-02-14T08:35:57;98498.50;;;1.63;43.18
45991;BME280;31721;41.740;-88.000;2023-02-14T08:38:25;98496.62;;;1.52;43.17
45991;BME280;31721;41.740;-88.000;2023-02-14T08:40:53;98495.17;;;1.65;42.98
45991;BME280;31721;41.740;-88.000;2023-02-14T08:43:21;98495.70;;;1.61;42.97
45991;BME280;31721;41.740;-88.000;2023-02-14T08:45:52;98492.44;;;1.71;42.95
45991;BME280;31721;41.740;-88.000;2023-02-14T08:48:19;98489.28;;;1.67;42.96
45991;BME280;31721;41.740;-88.000;2023-02-14T08:50:47;98487.20;;;1.76;42.98
45991;BME280;31721;41.740;-88.000;2023-02-14T08:53:15;98487.67;;;1.80;43.07
45991;BME280;31721;41.740;-88.000;2023-02-14T08:55:43;98490.85;;;1.79;42.87
45991;BME280;31721;41.740;-88.000;2023-02-14T08:58:12;98495.67;;;1.79;42.81
45991;BME280;31721;41.740;-88.000;2023-02-14T09:00:40;98495.74;;;1.82;42.81
45991;BME280;31721;41.740;-88.000;2023-02-14T09:03:08;98491.48;;;1.83;42.88
45991;BME280;31721;41.740;-88.000;2023-02-14T09:05:41;98487.28;;;1.81;42.95
45991;BME280;31721;41.740;-88.000;2023-02-14T09:08:08;98479.19;;;1.83;42.91
45991;BME280;31721;41.740;-88.000;2023-02-14T09:10:36;98480.89;;;1.85;42.92
45991;BME280;31721;41.740;-88.000;2023-02-14T09:13:05;98481.50;;;1.86;42.94
45991;BME280;31721;41.740;-88.000;2023-02-14T09:15:33;98475.51;;;1.88;42.89
45991;BME280;31721;41.740;-88.000;2023-02-14T09:18:00;98470.97;;;1.89;42.88
45991;BME280;31721;41.740;-88.000;2023-02-14T09:20:28;98468.83;;;1.92;42.87
45991;BME280;31721;41.740;-88.000;2023-02-14T09:22:56;98469.49;;;1.92;42.96
45991;BME280;31721;41.740;-88.000;2023-02-14T09:25:24;98468.31;;;1.95;42.90
45991;BME280;31721;41.740;-88.000;2023-02-14T09:27:51;98460.31;;;1.96;43.01
45991;BME280;31721;41.740;-88.000;2023-02-14T09:30:19;98453.53;;;1.98;43.02
45991;BME280;31721;41.740;-88.000;2023-02-14T09:32:47;98447.72;;;1.96;43.00
45991;BME280;31721;41.740;-88.000;2023-02-14T09:35:15;98441.90;;;1.92;43.18
45991;BME280;31721;41.740;-88.000;2023-02-14T09:37:43;98437.37;;;1.97;43.10
45991;BME280;31721;41.740;-88.000;2023-02-14T09:40:13;98436.41;;;1.99;43.22
45991;BME280;31721;41.740;-88.000;2023-02-14T09:42:50;98436.54;;;2.01;43.28
45991;BME280;31721;41.740;-88.000;2023-02-14T09:45:22;98436.83;;;2.01;43.22
45991;BME280;31721;41.740;-88.000;2023-02-14T09:47:55;98434.43;;;2.01;43.28
45991;BME280;31721;41.740;-88.000;2023-02-14T09:50:28;98427.61;;;2.01;43.34
45991;BME280;31721;41.740;-88.000;2023-02-14T09:53:00;98428.05;;;1.94;43.36
45991;BME280;31721;41.740;-88.000;2023-02-14T09:55:36;98432.63;;;1.99;43.36
45991;BME280;31721;41.740;-88.000;2023-02-14T09:58:11;98435.64;;;1.98;43.43
45991;BME280;31721;41.740;-88.000;2023-02-14T10:00:45;98425.10;;;1.96;43.35
45991;BME280;31721;41.740;-88.000;2023-02-14T10:03:36;98418.30;;;1.93;43.38
45991;BME280;31721;41.740;-88.000;2023-02-14T10:06:13;98414.92;;;1.97;43.26
45991;BME280;31721;41.740;-88.000;2023-02-14T10:08:53;98414.60;;;1.84;43.35
45991;BME280;31721;41.740;-88.000;2023-02-14T10:11:23;98409.79;;;1.84;43.46
45991;BME280;31721;41.740;-88.000;2023-02-14T10:13:53;98409.76;;;1.83;43.57
45991;BME280;31721;41.740;-88.000;2023-02-14T10:16:24;98411.78;;;1.86;43.47
45991;BME280;31721;41.740;-88.000;2023-02-14T10:18:58;98417.39;;;1.86;43.52
45991;BME280;31721;41.740;-88.000;2023-02-14T10:21:31;98417.22;;;1.81;43.47
45991;BME280;31721;41.740;-88.000;2023-02-14T10:24:04;98414.59;;;1.77;43.53
45991;BME280;31721;41.740;-88.000;2023-02-14T10:26:39;98407.47;;;1.72;43.75
45991;BME280;31721;41.740;-88.000;2023-02-14T10:29:12;98402.75;;;1.79;43.87
45991;BME280;31721;41.740;-88.000;2023-02-14T10:31:46;98400.87;;;1.74;43.99
45991;BME280;31721;41.740;-88.000;2023-02-14T10:34:19;98393.95;;;1.70;44.05
45991;BME280;31721;41.740;-88.000;2023-02-14T10:37:03;98391.98;;;1.72;44.11
45991;BME280;31721;41.740;-88.000;2023-02-14T10:39:50;98389.45;;;1.72;44.31
45991;BME280;31721;41.740;-88.000;2023-02-14T10:42:28;98393.37;;;1.73;44.18
45991;BME280;31721;41.740;-88.000;2023-02-14T10:45:09;98402.09;;;1.61;44.33
45991;BME280;31721;41.740;-88.000;2023-02-14T10:47:46;98408.50;;;1.68;44.40
45991;BME280;31721;41.740;-88.000;2023-02-14T10:50:22;98418.00;;;1.77;44.43
45991;BME280;31721;41.740;-88.000;2023-02-14T10:53:00;98422.15;;;1.71;44.25
45991;BME280;31721;41.740;-88.000;2023-02-14T10:55:40;98435.38;;;1.78;44.30
45991;BME280;31721;41.740;-88.000;2023-02-14T10:58:13;98442.61;;;1.71;44.48
45991;BME280;31721;41.740;-88.000;2023-02-14T11:00:51;98422.53;;;1.76;44.45
45991;BME280;31721;41.740;-88.000;2023-02-14T11:03:21;98404.83;;;1.65;44.56
45991;BME280;31721;41.740;-88.000;2023-02-14T11:05:50;98406.17;;;1.66;44.67
45991;BME280;31721;41.740;-88.000;2023-02-14T11:08:23;98405.16;;;1.74;44.71
45991;BME280;31721;41.740;-88.000;2023-02-14T11:10:52;98404.35;;;1.77;44.65
45991;BME280;31721;41.740;-88.000;2023-02-14T11:13:29;98405.07;;;1.73;44.77
45991;BME280;31721;41.740;-88.000;2023-02-14T11:16:01;98409.22;;;1.76;44.75
45991;BME280;31721;41.740;-88.000;2023-02-14T11:18:30;98410.37;;;1.77;44.68
45991;BME280;31721;41.740;-88.000;2023-02-14T11:21:02;98422.08;;;1.78;44.68
45991;BME280;31721;41.740;-88.000;2023-02-14T11:23:36;98421.61;;;1.87;44.77
45991;BME280;31721;41.740;-88.000;2023-02-14T11:26:07;98409.91;;;1.79;44.64
45991;BME280;31721;41.740;-88.000;2023-02-14T11:28:47;98412.14;;;1.79;44.80
45991;BME280;31721;41.740;-88.000;2023-02-14T11:31:25;98416.06;;;1.84;44.93
45991;BME280;31721;41.740;-88.000;2023-02-14T11:33:53;98415.60;;;1.84;44.90
45991;BME280;31721;41.740;-88.000;2023-02-14T11:36:21;98411.10;;;1.84;44.92
45991;BME280;31721;41.740;-88.000;2023-02-14T11:38:55;98409.60;;;1.79;44.97
45991;BME280;31721;41.740;-88.000;2023-02-14T11:41:25;98404.32;;;1.77;44.84
45991;BME280;31721;41.740;-88.000;2023-02-14T11:44:11;98400.77;;;1.76;45.07
45991;BME280;31721;41.740;-88.000;2023-02-14T11:46:40;98404.10;;;1.76;45.19
45991;BME280;31721;41.740;-88.000;2023-02-14T11:49:23;98394.18;;;1.77;45.19
45991;BME280;31721;41.740;-88.000;2023-02-14T11:51:51;98394.57;;;1.78;45.16
45991;BME280;31721;41.740;-88.000;2023-02-14T11:54:28;98394.82;;;1.76;45.11
45991;BME280;31721;41.740;-88.000;2023-02-14T11:57:01;98393.07;;;1.86;45.36
45991;BME280;31721;41.740;-88.000;2023-02-14T11:59:33;98389.06;;;1.80;45.21
45991;BME280;31721;41.740;-88.000;2023-02-14T12:02:10;98384.38;;;1.82;45.24
45991;BME280;31721;41.740;-88.000;2023-02-14T12:04:42;98377.83;;;1.86;45.33
45991;BME280;31721;41.740;-88.000;2023-02-14T12:07:18;98377.83;;;1.88;45.36
45991;BME280;31721;41.740;-88.000;2023-02-14T12:09:47;98379.81;;;1.88;45.25
45991;BME280;31721;41.740;-88.000;2023-02-14T12:12:31;98379.86;;;1.92;45.37
45991;BME280;31721;41.740;-88.000;2023-02-14T12:15:21;98381.86;;;1.91;45.40
45991;BME280;31721;41.740;-88.000;2023-02-14T12:17:55;98382.16;;;1.89;45.42
45991;BME280;31721;41.740;-88.000;2023-02-14T12:20:34;98380.98;;;1.89;45.42
45991;BME280;31721;41.740;-88.000;2023-02-14T12:23:12;98384.69;;;1.86;45.42
45991;BME280;31721;41.740;-88.000;2023-02-14T12:25:47;98391.53;;;1.87;45.36
45991;BME280;31721;41.740;-88.000;2023-02-14T12:28:20;98395.82;;;1.84;45.39
45991;BME280;31721;41.740;-88.000;2023-02-14T12:30:51;98397.77;;;1.83;45.41
45991;BME280;31721;41.740;-88.000;2023-02-14T12:33:20;98400.50;;;1.88;45.32
45991;BME280;31721;41.740;-88.000;2023-02-14T12:35:54;98405.66;;;1.85;45.39
45991;BME280;31721;41.740;-88.000;2023-02-14T12:38:40;98410.04;;;1.78;45.36
45991;BME280;31721;41.740;-88.000;2023-02-14T12:41:26;98414.63;;;1.76;45.50
45991;BME280;31721;41.740;-88.000;2023-02-14T12:43:57;98421.58;;;1.55;46.01
45991;BME280;31721;41.740;-88.000;2023-02-14T12:46:41;98420.54;;;1.71;45.77
45991;BME280;31721;41.740;-88.000;2023-02-14T12:49:25;98421.99;;;1.47;46.01
45991;BME280;31721;41.740;-88.000;2023-02-14T12:52:05;98417.79;;;1.65;46.32
45991;BME280;31721;41.740;-88.000;2023-02-14T12:54:52;98417.05;;;1.65;46.51
45991;BME280;31721;41.740;-88.000;2023-02-14T12:57:33;98422.46;;;1.32;47.00
45991;BME280;31721;41.740;-88.000;2023-02-14T13:00:19;98420.37;;;1.25;46.73
45991;BME280;31721;41.740;-88.000;2023-02-14T13:03:09;98423.38;;;1.54;46.87
45991;BME280;31721;41.740;-88.000;2023-02-14T13:05:52;98421.61;;;1.70;46.98
45991;BME280;31721;41.740;-88.000;2023-02-14T13:08:40;98418.62;;;1.78;46.98
45991;BME280;31721;41.740;-88.000;2023-02-14T13:11:17;98420.30;;;1.70;48.05
45991;BME280;31721;41.740;-88.000;2023-02-14T13:13:53;98425.54;;;1.99;46.96
45991;BME280;31721;41.740;-88.000;2023-02-14T13:16:30;98425.96;;;1.85;47.22
45991;BME280;31721;41.740;-88.000;2023-02-14T13:19:05;98430.32;;;1.83;48.65